本版置顶 隐藏置顶帖 那些年,风靡全球的SI,PI,EMC BOOKS(2009--2015)外文版 91人参与 attach_img  ...23456 樱桃海弥 2016-2-2 17:33 88 9991 zz9900 2019-6-6 14:32
本版置顶 隐藏置顶帖 Designcon 2016 paper 下载站 80人参与 attachment  ...23456..7 shark4685 2016-1-27 11:33 91 16789 madw0623 2019-6-14 15:57
      
[ADS仿真] ADS射频电路设计与仿真 入门及应用实例-----电子版 第二贴 3人参与 attachment New igrdf 2019-6-15 14:02 3 55 wu6886 2019-6-16 00:02
[ADS仿真] ADS射频电路设计与仿真 入门及应用实例-----电子版 第一帖 新人帖 attachment New igrdf 2019-6-15 14:00 0 58 igrdf 2019-6-15 14:00
[Cadence Sigrity] 现在大多数厂商提供的仿真模型都是spice的但allegro sigrity 好像只能用ibis的 1人参与 New xl917350795 2019-6-15 10:37 1 77 herohit 2019-6-15 19:29
[HyperLynx] brd文件使用hyperlynx转hyp 文件报错 New 不期而遇 2019-6-14 09:26 0 36 不期而遇 2019-6-14 09:26
[仿真讨论] 什么时候要用AMI模型 4人参与 New Lee_G10D0 2019-6-13 10:08 4 43 playray_tang 2019-6-13 22:20
[Cadence Sigrity] Sigrity systemSI ,allgro Sigrity SI一样吗 4人参与 新人帖 New qq447584497 2019-6-12 18:59 5 78 playray_tang 2019-6-13 22:21
[Cadence Sigrity] 谁有《cadence高速电路设计allegro sigrity SI-PI-EMI书籍》这本书的光盘文件? 8人参与 New xl917350795 2019-6-12 14:15 9 135 suiwinder 2019-6-14 15:47
[仿真讨论] 三星ddr4 ibis模型请求 4人参与 新人帖 New zz9900 2019-6-11 22:44 4 291 zz9900 2019-6-12 21:43
[ADS仿真] ADS2019 SI/PI PRO无法使用 6人参与 attachment New menghunabc 2019-6-11 16:49 6 220 suiwinder 2019-6-14 15:43
[ADS仿真] ADS安装问题 2人参与 attach_img New kevinyuanic 2019-6-11 16:35 2 184 jackli198323 2019-6-13 18:08
[ADS仿真] ADS安装出现这个问题 新人帖 New kevinyuanic 2019-6-11 16:32 0 181 kevinyuanic 2019-6-11 16:32
[ADS仿真] ADS仿真报错 1人参与 attach_img New hhh虎次郎 2019-6-11 15:14 1 174 jackli198323 2019-6-12 17:41
[Cadence Sigrity] DDR3中DM校验码其有效时间判别方式 5人参与 agree New clovep 2019-6-10 18:46 5 87 zz9900 2019-6-11 20:33
[ADS仿真] ADS2019安装问题 2人参与 attach_img New radishoo 2019-6-10 11:11 3 85 jackli198323 2019-6-10 18:31
[ADS仿真] 请教ADS的瞬态仿真步长 7人参与 attach_img hhh虎次郎 2019-6-7 16:56 8 133 antoniofay 2019-6-10 18:53
[Cadence Sigrity] DDR3仿真结果与实际测试相差较大 5人参与 clovep 2019-6-6 10:10 8 145 playray_tang 2019-6-13 22:19
[HyperLynx] Mentor Expediton中引线键合(wire bonding)导入到Hyperlynx后,键合线还在么? 5人参与 j走不停j 2019-6-3 10:21 8 113 jacksonloup 2019-6-13 06:30
[仿真讨论] 关于IC封装散热仿真 9人参与 gloriousjh 2019-5-30 19:34 12 141 jackli198323 2019-6-6 11:30
[仿真讨论] DDR3信号完整性仿真流程 12人参与 chm1020 2019-5-30 09:35 14 289 pengyujun180334 2019-6-11 18:34
[Cadence Sigrity] 关于POWER SI提取PCIES参数 5人参与 attach_img kevin890505 2019-5-29 19:05 6 171 tianjie3 2019-6-8 08:46
[资料下载] 仿真模型下载 8人参与 新人帖 wux 2019-5-29 15:28 10 161 herohit 2019-6-15 19:28
[Cadence Sigrity] speed2000 Generator仿真DDR3控制器加载IBIS模型提示无电源端口 8人参与 attach_img wsn2010 2019-5-29 00:40 13 213 wu6886 2019-6-2 18:45
[ADS仿真] 求ADS信号完整性教程 10人参与 attach_img hhh虎次郎 2019-5-28 19:27 14 208 jackli198323 2019-6-5 16:50
下一页 »
还可输入 80 个字符
您需要登录后才可以发帖 登录 | 注册

本版积分规则

EDA365公众号

关于我们|手机版|EDA365电子论坛网 ( )

GMT+8, 2019-6-16 02:11 , Processed in 0。093750 second(s), 13 queries , Gzip On。

深圳市电巢科技有限公司

秒速时时彩平台-全天计划-官网投注平台地址:深圳市南山区科技生态园1区2栋A座805 电话:19925233282

返回顶部 返回版块